createdAt,value
2022-11-30T00:01:20.471Z,20.93
2022-11-30T00:03:41.645Z,20.50
2022-11-30T00:06:04.764Z,20.43
2022-11-30T00:08:29.226Z,19.27
2022-11-30T00:10:50.113Z,19.67
2022-11-30T00:13:11.339Z,19.27
2022-11-30T00:15:34.146Z,20.53
2022-11-30T00:17:57.038Z,19.60
2022-11-30T00:20:18.494Z,19.23
2022-11-30T00:22:39.884Z,19.33
2022-11-30T00:25:03.188Z,19.80
2022-11-30T00:27:24.189Z,20.07
2022-11-30T00:29:45.702Z,20.10
2022-11-30T00:32:08.406Z,19.07
2022-11-30T00:34:29.782Z,19.47
2022-11-30T00:36:50.851Z,19.73
2022-11-30T00:39:12.255Z,19.40
2022-11-30T00:41:33.418Z,18.70
2022-11-30T00:43:54.603Z,19.77
2022-11-30T00:46:15.993Z,19.10
2022-11-30T00:48:38.902Z,19.43
2022-11-30T00:50:59.849Z,17.67
2022-11-30T00:53:21.659Z,17.83
2022-11-30T00:55:43.936Z,18.67
2022-11-30T00:58:07.059Z,17.90
2022-11-30T01:00:28.617Z,18.33
2022-11-30T01:02:49.842Z,18.20
2022-11-30T01:05:12.543Z,17.97
2022-11-30T01:07:33.535Z,17.60
2022-11-30T01:09:54.641Z,16.87
2022-11-30T01:12:15.839Z,17.97
2022-11-30T01:14:36.981Z,17.87
2022-11-30T01:16:58.118Z,18.87
2022-11-30T01:19:19.385Z,18.17
2022-11-30T01:21:41.990Z,17.50
2022-11-30T01:24:03.169Z,17.33
2022-11-30T01:26:24.730Z,17.57
2022-11-30T01:28:46.459Z,17.67
2022-11-30T01:31:08.550Z,16.40
2022-11-30T01:33:29.744Z,15.67
2022-11-30T01:35:59.015Z,15.70
2022-11-30T01:38:21.205Z,17.53
2022-11-30T01:40:50.098Z,17.40
2022-11-30T01:43:11.569Z,16.37
2022-11-30T01:45:33.060Z,16.30
2022-11-30T01:47:55.624Z,17.60
2022-11-30T01:50:18.293Z,16.50
2022-11-30T01:52:40.888Z,16.03
2022-11-30T01:55:08.821Z,15.67
2022-11-30T01:57:32.578Z,17.37
2022-11-30T01:59:55.867Z,16.63
2022-11-30T02:02:17.539Z,17.37
2022-11-30T02:04:39.152Z,16.07
2022-11-30T02:07:00.870Z,16.10
2022-11-30T02:09:23.063Z,16.47
2022-11-30T02:11:45.893Z,15.90
2022-11-30T02:14:12.130Z,15.17
2022-11-30T02:16:37.298Z,16.30
2022-11-30T02:19:01.943Z,15.27
2022-11-30T02:21:25.895Z,15.40
2022-11-30T02:24:04.939Z,15.80
2022-11-30T02:26:36.461Z,14.00
2022-11-30T02:29:14.034Z,14.27
2022-11-30T02:31:39.673Z,13.87
2022-11-30T02:34:01.820Z,13.27
2022-11-30T02:36:23.969Z,13.17
2022-11-30T02:38:45.177Z,13.43
2022-11-30T02:41:06.644Z,13.13
2022-11-30T02:43:28.959Z,13.97
2022-11-30T02:45:54.771Z,12.63
2022-11-30T02:48:18.695Z,13.17
2022-11-30T02:50:41.442Z,13.70
2022-11-30T02:53:02.982Z,13.13
2022-11-30T02:55:24.208Z,13.33
2022-11-30T02:57:45.103Z,13.00
2022-11-30T03:00:07.952Z,13.87
2022-11-30T03:02:30.302Z,15.07
2022-11-30T03:04:51.522Z,14.30
2022-11-30T03:07:12.896Z,13.43
2022-11-30T03:09:34.159Z,14.63
2022-11-30T03:11:55.606Z,12.93
2022-11-30T03:14:16.981Z,13.03
2022-11-30T03:16:38.569Z,13.67
2022-11-30T03:19:00.967Z,12.77
2022-11-30T03:21:22.336Z,13.70
2022-11-30T03:23:43.659Z,14.00
2022-11-30T03:26:05.729Z,13.50
2022-11-30T03:28:26.919Z,13.53
2022-11-30T03:30:49.591Z,15.07
2022-11-30T03:33:10.761Z,14.77
2022-11-30T03:35:33.486Z,14.30
2022-11-30T03:37:54.427Z,14.50
2022-11-30T03:40:15.822Z,14.10
2022-11-30T03:42:36.785Z,15.57
2022-11-30T03:44:58.045Z,15.50
2022-11-30T03:47:19.348Z,16.10
2022-11-30T03:49:40.879Z,16.70
2022-11-30T03:52:04.214Z,14.90
2022-11-30T03:54:25.568Z,15.17
2022-11-30T03:56:46.800Z,14.17
2022-11-30T03:59:08.055Z,14.33
2022-11-30T04:01:29.546Z,14.60
2022-11-30T04:03:51.195Z,13.50
2022-11-30T04:06:13.115Z,13.57
2022-11-30T04:08:35.349Z,13.70
2022-11-30T04:10:57.303Z,13.97
2022-11-30T04:13:18.499Z,14.03
2022-11-30T04:15:39.707Z,14.73
2022-11-30T04:18:00.799Z,13.30
2022-11-30T04:20:22.074Z,14.23
2022-11-30T04:22:43.234Z,13.47
2022-11-30T04:25:06.143Z,12.77
2022-11-30T04:27:29.199Z,14.60
2022-11-30T04:29:50.146Z,13.60
2022-11-30T04:32:11.260Z,13.37
2022-11-30T04:34:32.634Z,13.87
2022-11-30T04:36:58.845Z,14.27
2022-11-30T04:39:21.533Z,13.20
2022-11-30T04:41:44.058Z,12.93
2022-11-30T04:44:05.522Z,12.87
2022-11-30T04:46:26.902Z,12.47
2022-11-30T04:48:48.075Z,12.43
2022-11-30T04:51:09.885Z,11.57
2022-11-30T04:53:31.185Z,11.87
2022-11-30T04:55:52.526Z,11.97
2022-11-30T04:58:15.267Z,11.70
2022-11-30T05:00:37.115Z,11.73
2022-11-30T05:02:58.301Z,11.70
2022-11-30T05:05:19.636Z,11.47
2022-11-30T05:07:41.605Z,11.80
2022-11-30T05:10:02.690Z,11.00
2022-11-30T05:12:23.890Z,11.13
2022-11-30T05:14:46.650Z,10.70
2022-11-30T05:17:08.205Z,10.87
2022-11-30T05:19:29.328Z,11.83
2022-11-30T05:21:50.703Z,10.57
2022-11-30T05:24:11.967Z,11.63
2022-11-30T05:26:33.382Z,11.53
2022-11-30T05:28:54.536Z,12.17
2022-11-30T05:31:17.539Z,12.07
2022-11-30T05:33:38.458Z,14.10
2022-11-30T05:35:59.982Z,13.33
2022-11-30T05:38:21.171Z,14.23
2022-11-30T05:40:42.306Z,13.87
2022-11-30T05:43:04.733Z,15.20
2022-11-30T05:45:25.744Z,16.27
2022-11-30T05:47:48.354Z,17.27
2022-11-30T05:50:10.105Z,17.20
2022-11-30T05:52:31.354Z,16.93
2022-11-30T05:54:52.526Z,20.07
2022-11-30T05:57:13.727Z,21.23
2022-11-30T05:59:34.832Z,23.03
2022-11-30T06:01:56.292Z,21.50
2022-11-30T06:04:18.795Z,22.43
2022-11-30T06:06:40.139Z,24.50
2022-11-30T06:09:01.319Z,22.87
2022-11-30T06:11:22.623Z,24.27
2022-11-30T06:13:43.934Z,24.57
2022-11-30T06:16:06.303Z,23.43
2022-11-30T06:18:27.666Z,23.90
2022-11-30T06:20:50.267Z,23.37
2022-11-30T06:23:11.582Z,22.83
2022-11-30T06:25:33.054Z,23.60
2022-11-30T06:27:54.460Z,24.20
2022-11-30T06:30:16.112Z,24.53
2022-11-30T06:32:37.019Z,24.50
2022-11-30T06:34:58.116Z,25.63
2022-11-30T06:37:20.656Z,23.80
2022-11-30T06:42:23.165Z,25.37
2022-11-30T06:44:44.454Z,25.43
2022-11-30T06:47:05.676Z,24.60
2022-11-30T06:49:26.979Z,25.90
2022-11-30T06:51:48.265Z,25.83
2022-11-30T06:54:10.964Z,27.50
2022-11-30T06:56:32.281Z,26.17
2022-11-30T06:58:54.371Z,27.17
2022-11-30T07:01:16.263Z,26.03
2022-11-30T07:03:38.001Z,27.07
2022-11-30T07:05:59.618Z,26.90
2022-11-30T07:08:20.723Z,26.20
2022-11-30T07:10:44.000Z,25.43
2022-11-30T07:13:05.193Z,27.07
2022-11-30T07:15:26.502Z,26.43
2022-11-30T07:17:47.975Z,25.63
2022-11-30T07:20:09.677Z,26.43
2022-11-30T07:22:30.738Z,25.53
2022-11-30T07:25:09.491Z,25.77
2022-11-30T07:27:32.126Z,25.93
2022-11-30T07:29:53.250Z,26.10
2022-11-30T07:32:14.380Z,26.70
2022-11-30T07:34:35.642Z,25.93
2022-11-30T07:36:56.787Z,25.77
2022-11-30T07:39:17.946Z,24.83
2022-11-30T07:41:39.195Z,25.17
2022-11-30T07:44:01.753Z,26.17
2022-11-30T07:46:23.037Z,26.07
2022-11-30T07:48:44.999Z,23.60
2022-11-30T07:51:06.771Z,24.47
2022-11-30T07:53:27.712Z,23.73
2022-11-30T07:55:55.480Z,22.77
2022-11-30T07:58:17.927Z,22.50
2022-11-30T08:00:40.535Z,25.23
2022-11-30T08:03:01.900Z,22.93
2022-11-30T08:05:23.604Z,23.97
2022-11-30T08:07:45.779Z,23.23
2022-11-30T08:10:07.863Z,23.30
2022-11-30T08:12:29.123Z,25.77
2022-11-30T08:15:18.688Z,24.93
2022-11-30T08:17:32.706Z,25.37
2022-11-30T08:19:53.815Z,25.30
2022-11-30T08:22:15.209Z,25.93
2022-11-30T08:24:36.369Z,25.53
2022-11-30T08:26:57.581Z,25.57
2022-11-30T08:29:19.004Z,25.03
2022-11-30T08:31:40.152Z,26.33
2022-11-30T08:34:04.090Z,26.00
2022-11-30T08:36:25.670Z,27.40
2022-11-30T08:38:47.587Z,26.90
2022-11-30T08:41:09.514Z,24.93
2022-11-30T08:43:30.393Z,24.97
2022-11-30T08:45:54.539Z,23.23
2022-11-30T08:48:18.227Z,24.03
2022-11-30T08:50:40.837Z,24.17
2022-11-30T08:53:06.400Z,23.60
2022-11-30T08:55:28.120Z,23.47
2022-11-30T08:57:49.499Z,25.03
2022-11-30T09:00:11.517Z,24.30
2022-11-30T09:02:32.480Z,23.63
2022-11-30T09:04:53.951Z,23.10
2022-11-30T09:07:16.194Z,23.70
2022-11-30T09:09:37.769Z,22.67
2022-11-30T09:11:59.036Z,23.93
2022-11-30T09:14:20.201Z,23.10
2022-11-30T09:16:41.409Z,23.97
2022-11-30T09:19:02.760Z,22.80
2022-11-30T09:21:25.099Z,22.57
2022-11-30T09:23:47.624Z,22.63
2022-11-30T09:26:09.840Z,22.70
2022-11-30T09:28:31.434Z,22.30
2022-11-30T09:30:52.830Z,20.30
2022-11-30T09:33:14.107Z,20.20
2022-11-30T09:35:35.442Z,20.53
2022-11-30T09:37:56.717Z,20.50
2022-11-30T09:40:20.510Z,20.70
2022-11-30T09:42:47.353Z,20.87
2022-11-30T09:45:12.900Z,19.63
2022-11-30T09:47:40.734Z,20.50
2022-11-30T09:50:04.077Z,19.93
2022-11-30T09:52:27.990Z,19.63
2022-11-30T09:54:49.609Z,19.67
2022-11-30T09:57:19.760Z,18.73
2022-11-30T09:59:44.290Z,20.40
2022-11-30T10:02:15.188Z,19.60
2022-11-30T10:04:36.715Z,18.93
2022-11-30T10:07:04.034Z,19.77
2022-11-30T10:09:28.165Z,18.63
2022-11-30T10:11:53.471Z,19.87
2022-11-30T10:14:21.620Z,19.10
2022-11-30T10:16:49.744Z,18.90
2022-11-30T10:19:16.052Z,19.13
2022-11-30T10:21:43.359Z,19.17
2022-11-30T10:24:16.187Z,18.60
2022-11-30T10:26:38.650Z,18.67
2022-11-30T10:29:02.606Z,18.13
2022-11-30T10:31:29.461Z,18.30
2022-11-30T10:33:51.346Z,18.37
2022-11-30T10:36:14.339Z,18.83
2022-11-30T10:38:37.912Z,18.67
2022-11-30T10:41:03.526Z,17.33
2022-11-30T10:43:28.280Z,17.53
2022-11-30T10:45:50.309Z,17.93
2022-11-30T10:48:15.321Z,18.60
2022-11-30T10:50:37.919Z,18.63
2022-11-30T10:53:00.265Z,17.00
2022-11-30T10:55:23.268Z,17.30
2022-11-30T10:57:44.454Z,17.37
2022-11-30T11:00:06.788Z,17.20
2022-11-30T11:02:39.057Z,17.07
2022-11-30T11:05:10.305Z,16.13
2022-11-30T11:07:32.754Z,17.63
2022-11-30T11:09:53.958Z,16.73
2022-11-30T11:12:16.679Z,17.27
2022-11-30T11:14:39.011Z,16.23
2022-11-30T11:17:01.863Z,16.50
2022-11-30T11:19:24.361Z,16.00
2022-11-30T11:21:49.609Z,16.07
2022-11-30T11:24:10.991Z,15.77
2022-11-30T11:26:32.053Z,16.57
2022-11-30T11:28:54.977Z,15.53
2022-11-30T11:31:17.485Z,16.13
2022-11-30T11:33:50.257Z,14.90
2022-11-30T11:36:15.791Z,14.53
2022-11-30T11:38:42.715Z,14.90
2022-11-30T11:41:05.392Z,15.00
2022-11-30T11:43:27.800Z,14.73
2022-11-30T11:45:52.044Z,13.87
2022-11-30T11:48:29.228Z,15.23
2022-11-30T11:51:06.718Z,14.03
2022-11-30T11:53:51.703Z,13.80
2022-11-30T11:56:19.139Z,13.83
2022-11-30T11:58:43.026Z,14.27
2022-11-30T12:01:38.254Z,13.83
2022-11-30T12:03:55.873Z,13.37
2022-11-30T12:06:19.649Z,13.57
2022-11-30T12:08:46.217Z,13.33
2022-11-30T12:11:09.801Z,13.30
2022-11-30T12:13:34.093Z,13.90
2022-11-30T12:16:00.963Z,14.23
2022-11-30T12:18:24.656Z,13.50
2022-11-30T12:20:53.257Z,13.70
2022-11-30T12:23:22.372Z,14.27
2022-11-30T12:25:48.414Z,14.13
2022-11-30T12:28:17.092Z,15.00
2022-11-30T12:30:43.585Z,14.17
2022-11-30T12:33:17.861Z,15.17
2022-11-30T12:35:44.850Z,14.60
2022-11-30T12:38:11.225Z,13.77
2022-11-30T12:40:36.757Z,13.97
2022-11-30T12:43:04.172Z,14.63
2022-11-30T12:45:28.761Z,15.07
2022-11-30T12:47:55.130Z,15.07
2022-11-30T12:50:23.882Z,15.17
2022-11-30T12:52:48.506Z,14.00
2022-11-30T12:55:14.714Z,13.67
2022-11-30T12:57:37.832Z,14.00
2022-11-30T13:00:04.647Z,13.57
2022-11-30T13:02:43.135Z,13.73
2022-11-30T13:05:07.537Z,12.53
2022-11-30T13:07:30.552Z,12.93
2022-11-30T13:09:53.692Z,12.47
2022-11-30T13:12:26.815Z,12.53
2022-11-30T13:14:48.074Z,12.87
2022-11-30T13:17:14.726Z,13.17
2022-11-30T13:19:51.418Z,12.53
2022-11-30T13:22:16.685Z,11.67
2022-11-30T13:24:41.070Z,12.13
2022-11-30T13:27:05.578Z,12.03
2022-11-30T13:29:45.614Z,12.67
2022-11-30T13:32:22.491Z,11.93
2022-11-30T13:34:52.807Z,12.07
2022-11-30T13:37:14.891Z,12.30
2022-11-30T13:39:45.646Z,11.50
2022-11-30T13:42:16.051Z,11.80
2022-11-30T13:44:38.678Z,12.43
2022-11-30T13:47:00.495Z,12.03
2022-11-30T13:49:22.656Z,12.03
2022-11-30T13:51:45.171Z,12.10
2022-11-30T13:54:27.836Z,12.00
2022-11-30T13:56:49.587Z,12.40
2022-11-30T13:59:32.562Z,11.87
2022-11-30T14:02:14.027Z,11.80
2022-11-30T14:04:35.145Z,11.37
2022-11-30T14:06:59.388Z,13.23
2022-11-30T14:09:35.160Z,11.40
2022-11-30T14:11:56.291Z,11.27
2022-11-30T14:14:32.227Z,11.90
2022-11-30T14:16:53.786Z,11.33
2022-11-30T14:19:14.839Z,9.87
2022-11-30T14:21:36.763Z,12.00
2022-11-30T14:24:00.855Z,14.07
2022-11-30T14:26:24.603Z,14.97
2022-11-30T14:28:48.037Z,41.87
2022-11-30T14:31:11.018Z,16.77
2022-11-30T14:33:39.267Z,15.73
2022-11-30T14:36:01.234Z,19.70
2022-11-30T14:38:25.131Z,20.60
2022-11-30T14:40:52.581Z,13.37
2022-11-30T14:43:17.050Z,14.73
2022-11-30T14:45:38.154Z,21.63
2022-11-30T14:48:05.627Z,17.00
2022-11-30T14:50:27.265Z,16.27
2022-11-30T14:52:53.372Z,20.50
2022-11-30T14:55:18.612Z,16.53
2022-11-30T14:57:44.868Z,13.47
2022-11-30T15:00:06.961Z,13.90
2022-11-30T15:02:30.694Z,12.87
2022-11-30T15:04:53.282Z,13.87
2022-11-30T15:07:14.544Z,13.20
2022-11-30T15:09:35.833Z,12.93
2022-11-30T15:11:57.766Z,12.57
2022-11-30T15:14:20.686Z,14.97
2022-11-30T15:16:47.939Z,13.23
2022-11-30T15:19:19.224Z,14.10
2022-11-30T15:21:46.045Z,13.17
2022-11-30T15:24:07.448Z,13.23
2022-11-30T15:26:30.661Z,13.30
2022-11-30T15:28:55.116Z,12.87
2022-11-30T15:31:17.932Z,11.53
2022-11-30T15:33:42.326Z,12.10
2022-11-30T15:36:32.314Z,12.17
2022-11-30T15:38:50.296Z,12.20
2022-11-30T15:41:18.179Z,12.00
2022-11-30T15:43:40.462Z,13.50
2022-11-30T15:46:01.475Z,12.53
2022-11-30T15:48:29.369Z,11.67
2022-11-30T15:50:50.402Z,9.70
2022-11-30T15:53:28.875Z,9.43
2022-11-30T15:55:54.096Z,10.90
2022-11-30T15:58:25.579Z,9.27
2022-11-30T16:00:58.830Z,8.30
2022-11-30T16:03:19.749Z,8.57
2022-11-30T16:05:54.405Z,8.33
2022-11-30T16:08:15.955Z,7.10
2022-11-30T16:10:37.793Z,8.90
2022-11-30T16:12:59.144Z,7.40
2022-11-30T16:15:21.173Z,6.20
2022-11-30T16:17:42.392Z,6.37
2022-11-30T16:20:04.372Z,6.60
2022-11-30T16:22:26.624Z,7.57
2022-11-30T16:24:47.869Z,6.90
2022-11-30T16:27:13.943Z,6.27
2022-11-30T16:29:34.894Z,6.27
2022-11-30T16:31:56.317Z,5.50
2022-11-30T16:34:17.543Z,5.73
2022-11-30T16:36:39.324Z,5.20
2022-11-30T16:39:01.934Z,5.23
2022-11-30T16:41:23.919Z,4.90
2022-11-30T16:43:45.562Z,4.97
2022-11-30T16:46:06.591Z,4.80
2022-11-30T16:48:28.375Z,4.70
2022-11-30T16:50:49.474Z,5.07
2022-11-30T16:53:13.085Z,4.93
2022-11-30T16:55:37.680Z,4.67
2022-11-30T16:57:59.308Z,5.13
2022-11-30T17:00:21.007Z,5.17
2022-11-30T17:02:44.492Z,6.40
2022-11-30T17:05:06.278Z,5.60
2022-11-30T17:07:27.288Z,6.30
2022-11-30T17:09:48.554Z,6.87
2022-11-30T17:12:11.176Z,7.60
2022-11-30T17:14:32.305Z,7.27
2022-11-30T17:16:53.576Z,8.57
2022-11-30T17:19:14.883Z,8.40
2022-11-30T17:21:36.987Z,7.50
2022-11-30T17:23:58.560Z,8.10
2022-11-30T17:26:19.732Z,7.90
2022-11-30T17:28:42.587Z,8.03
2022-11-30T17:31:04.023Z,8.13
2022-11-30T17:33:25.243Z,9.50
2022-11-30T17:35:46.591Z,8.53
2022-11-30T17:38:07.983Z,7.80
2022-11-30T17:40:29.169Z,8.20
2022-11-30T17:42:50.406Z,8.70
2022-11-30T17:45:13.320Z,8.83
2022-11-30T17:47:34.167Z,8.53
2022-11-30T17:49:56.608Z,10.07
2022-11-30T17:52:17.993Z,8.90
2022-11-30T17:54:39.150Z,8.83
2022-11-30T17:57:00.498Z,9.43
2022-11-30T17:59:22.161Z,9.77
2022-11-30T18:01:44.704Z,9.90
2022-11-30T18:04:06.131Z,10.60
2022-11-30T18:06:27.248Z,9.27
2022-11-30T18:08:48.583Z,10.37
2022-11-30T18:11:10.888Z,9.20
2022-11-30T18:13:32.280Z,9.40
2022-11-30T18:15:53.527Z,9.87
2022-11-30T18:18:16.120Z,10.60
2022-11-30T18:20:37.408Z,10.13
2022-11-30T18:22:58.615Z,10.53
2022-11-30T18:25:19.809Z,10.63
2022-11-30T18:27:41.126Z,9.87
2022-11-30T18:30:07.343Z,9.80
2022-11-30T18:32:31.880Z,10.53
2022-11-30T18:34:54.522Z,10.20
2022-11-30T18:37:16.035Z,10.83
2022-11-30T18:39:36.913Z,10.27
2022-11-30T18:41:58.167Z,11.13
2022-11-30T18:44:19.658Z,10.67
2022-11-30T18:46:40.653Z,10.60
2022-11-30T18:49:02.113Z,12.03
2022-11-30T18:51:25.314Z,12.33
2022-11-30T18:53:46.996Z,12.20
2022-11-30T18:56:08.671Z,11.90
2022-11-30T18:58:29.694Z,11.47
2022-11-30T19:00:50.889Z,12.00
2022-11-30T19:03:12.535Z,12.37
2022-11-30T19:05:34.868Z,12.43
2022-11-30T19:07:57.368Z,12.30
2022-11-30T19:10:18.517Z,12.20
2022-11-30T19:12:41.395Z,12.60
2022-11-30T19:15:04.587Z,11.83
2022-11-30T19:17:25.825Z,12.33
2022-11-30T19:19:47.234Z,11.73
2022-11-30T19:22:08.450Z,12.20
2022-11-30T19:24:31.257Z,12.17
2022-11-30T19:26:52.714Z,12.27
2022-11-30T19:29:14.115Z,11.73
2022-11-30T19:31:35.466Z,13.00
2022-11-30T19:33:57.270Z,13.33
2022-11-30T19:36:19.873Z,12.20
2022-11-30T19:38:41.020Z,13.27
2022-11-30T19:41:07.071Z,12.37
2022-11-30T19:43:28.227Z,11.80
2022-11-30T19:45:49.516Z,12.10
2022-11-30T19:48:10.364Z,11.47
2022-11-30T19:50:31.470Z,11.50
2022-11-30T19:52:52.839Z,12.17
2022-11-30T19:55:14.190Z,11.53
2022-11-30T19:57:37.221Z,10.70
2022-11-30T19:59:58.681Z,11.70
2022-11-30T20:02:20.133Z,11.40
2022-11-30T20:04:41.297Z,10.73
2022-11-30T20:07:02.633Z,10.57
2022-11-30T20:09:23.997Z,10.97
2022-11-30T20:11:45.330Z,10.93
2022-11-30T20:14:08.047Z,11.30
2022-11-30T20:16:29.676Z,11.27
2022-11-30T20:18:52.620Z,10.93
2022-11-30T20:21:14.610Z,11.17
2022-11-30T20:23:35.835Z,11.37
2022-11-30T20:25:57.016Z,11.13
2022-11-30T20:28:18.497Z,10.87
2022-11-30T20:30:41.188Z,11.63
2022-11-30T20:33:02.377Z,11.10
2022-11-30T20:35:23.777Z,12.27
2022-11-30T20:37:45.017Z,12.20
2022-11-30T20:40:07.119Z,11.20
2022-11-30T20:42:28.221Z,11.63
2022-11-30T20:44:49.801Z,12.57
2022-11-30T20:47:12.354Z,13.13
2022-11-30T20:49:33.632Z,11.67
2022-11-30T20:51:54.947Z,11.97
2022-11-30T20:54:16.339Z,11.57
2022-11-30T20:56:38.105Z,12.43
2022-11-30T20:59:01.659Z,11.67
2022-11-30T21:01:23.752Z,13.30
2022-11-30T21:03:47.018Z,12.80
2022-11-30T21:06:08.406Z,12.77
2022-11-30T21:08:31.352Z,12.37
2022-11-30T21:10:52.799Z,13.10
2022-11-30T21:13:15.211Z,13.23
2022-11-30T21:15:36.581Z,13.27
2022-11-30T21:17:57.839Z,12.20
2022-11-30T21:20:20.667Z,12.67
2022-11-30T21:22:41.936Z,12.73
2022-11-30T21:25:03.127Z,12.93
2022-11-30T21:27:24.446Z,12.93
2022-11-30T21:29:45.897Z,11.70
2022-11-30T21:32:07.070Z,13.20
2022-11-30T21:34:28.496Z,12.77
2022-11-30T21:36:52.090Z,13.20
2022-11-30T21:39:14.374Z,12.93
2022-11-30T21:41:36.082Z,12.80
2022-11-30T21:43:57.626Z,13.30
2022-11-30T21:46:19.985Z,12.87
2022-11-30T21:48:41.947Z,12.77
2022-11-30T21:51:04.553Z,13.77
2022-11-30T21:53:27.337Z,13.40
2022-11-30T21:55:51.563Z,13.77
2022-11-30T21:58:16.519Z,12.93
2022-11-30T22:00:37.755Z,13.63
2022-11-30T22:02:59.151Z,14.07
2022-11-30T22:05:20.188Z,13.10
2022-11-30T22:07:41.685Z,13.53
2022-11-30T22:10:04.345Z,13.23
2022-11-30T22:12:25.411Z,14.77
2022-11-30T22:14:46.412Z,13.97
2022-11-30T22:17:07.662Z,13.03
2022-11-30T22:19:29.041Z,14.27
2022-11-30T22:21:50.608Z,13.23
2022-11-30T22:24:12.693Z,13.67
2022-11-30T22:26:36.248Z,13.70
2022-11-30T22:28:58.489Z,14.17
2022-11-30T22:31:21.371Z,14.60
2022-11-30T22:33:43.170Z,15.53
2022-11-30T22:36:04.747Z,14.50
2022-11-30T22:38:25.956Z,13.10
2022-11-30T22:40:47.224Z,13.83
2022-11-30T22:43:09.836Z,13.83
2022-11-30T22:45:31.242Z,14.33
2022-11-30T22:47:52.480Z,13.43
2022-11-30T22:50:13.997Z,14.20
2022-11-30T22:53:01.598Z,14.67
2022-11-30T22:55:16.309Z,14.57
2022-11-30T22:57:37.972Z,13.83
2022-11-30T23:00:00.608Z,14.00
2022-11-30T23:02:21.822Z,14.50
2022-11-30T23:04:43.142Z,14.40
2022-11-30T23:07:04.474Z,15.40
2022-11-30T23:09:25.734Z,15.03
2022-11-30T23:11:47.349Z,14.73
2022-11-30T23:14:09.594Z,15.53
2022-11-30T23:16:31.975Z,15.63
2022-11-30T23:18:54.565Z,14.67
2022-11-30T23:21:16.718Z,15.43
2022-11-30T23:23:37.953Z,14.87
2022-11-30T23:26:08.462Z,16.37
2022-11-30T23:28:29.517Z,14.87
2022-11-30T23:30:50.762Z,15.97
2022-11-30T23:33:13.509Z,16.80
2022-11-30T23:35:34.485Z,16.53
2022-11-30T23:37:55.752Z,17.73
2022-11-30T23:40:17.243Z,16.13
2022-11-30T23:42:38.604Z,16.73
2022-11-30T23:45:00.860Z,15.57
2022-11-30T23:47:21.945Z,17.30
2022-11-30T23:49:44.519Z,17.97
2022-11-30T23:52:05.970Z,15.97
2022-11-30T23:54:27.099Z,17.13
2022-11-30T23:56:48.551Z,16.53
2022-11-30T23:59:09.579Z,16.60
